sensor_id;sensor_type;location;lat;lon;timestamp;pressure;altitude;pressure_sealevel;temperature;humidity
61678;BME280;47575;52.054;4.334;2022-12-13T00:00:02;101448.22;;;-2.34;100.00
61678;BME280;47575;52.054;4.334;2022-12-13T00:02:39;101449.31;;;-2.26;100.00
61678;BME280;47575;52.054;4.334;2022-12-13T00:05:07;101445.78;;;-2.31;100.00
61678;BME280;47575;52.054;4.334;2022-12-13T00:07:34;101447.50;;;-2.30;100.00
61678;BME280;47575;52.054;4.334;2022-12-13T00:10:01;101446.34;;;-2.39;100.00
61678;BME280;47575;52.054;4.334;2022-12-13T00:12:28;101438.38;;;-2.48;100.00
61678;BME280;47575;52.054;4.334;2022-12-13T00:14:55;101443.78;;;-2.39;100.00
61678;BME280;47575;52.054;4.334;2022-12-13T00:17:22;101437.16;;;-2.33;100.00
61678;BME280;47575;52.054;4.334;2022-12-13T00:19:51;101437.69;;;-2.43;100.00
61678;BME280;47575;52.054;4.334;2022-12-13T00:22:18;101435.84;;;-2.47;100.00
61678;BME280;47575;52.054;4.334;2022-12-13T00:24:45;101438.50;;;-2.45;100.00
61678;BME280;47575;52.054;4.334;2022-12-13T00:27:12;101435.94;;;-2.45;100.00
61678;BME280;47575;52.054;4.334;2022-12-13T00:29:39;101445.28;;;-2.17;100.00
61678;BME280;47575;52.054;4.334;2022-12-13T00:32:06;101438.13;;;-2.29;100.00
61678;BME280;47575;52.054;4.334;2022-12-13T00:34:33;101441.56;;;-2.29;100.00
61678;BME280;47575;52.054;4.334;2022-12-13T00:37:02;101432.63;;;-2.41;100.00
61678;BME280;47575;52.054;4.334;2022-12-13T00:39:29;101437.44;;;-2.52;100.00
61678;BME280;47575;52.054;4.334;2022-12-13T00:41:56;101434.63;;;-2.60;100.00
61678;BME280;47575;52.054;4.334;2022-12-13T00:44:23;101429.63;;;-2.55;100.00
61678;BME280;47575;52.054;4.334;2022-12-13T00:46:50;101436.66;;;-2.21;100.00
61678;BME280;47575;52.054;4.334;2022-12-13T00:49:18;101421.56;;;-2.39;100.00
61678;BME280;47575;52.054;4.334;2022-12-13T00:51:45;101420.00;;;-2.35;100.00
61678;BME280;47575;52.054;4.334;2022-12-13T00:54:15;101416.00;;;-2.54;100.00
61678;BME280;47575;52.054;4.334;2022-12-13T00:56:42;101409.88;;;-2.59;100.00
61678;BME280;47575;52.054;4.334;2022-12-13T00:59:09;101411.56;;;-2.60;100.00
61678;BME280;47575;52.054;4.334;2022-12-13T01:01:39;101417.41;;;-2.64;100.00
61678;BME280;47575;52.054;4.334;2022-12-13T01:04:06;101413.06;;;-2.66;100.00
61678;BME280;47575;52.054;4.334;2022-12-13T01:06:35;101420.38;;;-2.52;100.00
61678;BME280;47575;52.054;4.334;2022-12-13T01:09:03;101420.28;;;-2.25;100.00
61678;BME280;47575;52.054;4.334;2022-12-13T01:11:32;101413.00;;;-2.39;100.00
61678;BME280;47575;52.054;4.334;2022-12-13T01:13:59;101412.41;;;-2.61;100.00
61678;BME280;47575;52.054;4.334;2022-12-13T01:16:26;101406.16;;;-2.69;100.00
61678;BME280;47575;52.054;4.334;2022-12-13T01:18:53;101403.50;;;-2.72;100.00
61678;BME280;47575;52.054;4.334;2022-12-13T01:21:20;101397.34;;;-2.77;100.00
61678;BME280;47575;52.054;4.334;2022-12-13T01:23:47;101387.00;;;-2.82;100.00
61678;BME280;47575;52.054;4.334;2022-12-13T01:26:15;101389.16;;;-2.67;100.00
61678;BME280;47575;52.054;4.334;2022-12-13T01:28:44;101394.34;;;-2.64;100.00
61678;BME280;47575;52.054;4.334;2022-12-13T01:31:12;101410.53;;;-2.38;100.00
61678;BME280;47575;52.054;4.334;2022-12-13T01:33:40;101392.94;;;-2.54;100.00
61678;BME280;47575;52.054;4.334;2022-12-13T01:36:09;101396.13;;;-2.61;100.00
61678;BME280;47575;52.054;4.334;2022-12-13T01:38:36;101398.34;;;-2.45;100.00
61678;BME280;47575;52.054;4.334;2022-12-13T01:41:03;101399.91;;;-2.50;100.00
61678;BME280;47575;52.054;4.334;2022-12-13T01:46:15;101395.09;;;-2.68;100.00
61678;BME280;47575;52.054;4.334;2022-12-13T01:48:45;101401.97;;;-2.67;100.00
61678;BME280;47575;52.054;4.334;2022-12-13T01:51:13;101405.44;;;-2.65;100.00
61678;BME280;47575;52.054;4.334;2022-12-13T01:53:42;101407.13;;;-2.65;100.00
61678;BME280;47575;52.054;4.334;2022-12-13T01:56:11;101411.09;;;-2.46;100.00
61678;BME280;47575;52.054;4.334;2022-12-13T01:58:41;101410.31;;;-2.45;100.00
61678;BME280;47575;52.054;4.334;2022-12-13T02:01:08;101407.66;;;-2.47;100.00
61678;BME280;47575;52.054;4.334;2022-12-13T02:03:37;101412.97;;;-2.41;100.00
61678;BME280;47575;52.054;4.334;2022-12-13T02:06:05;101407.97;;;-2.38;100.00
61678;BME280;47575;52.054;4.334;2022-12-13T02:08:33;101404.13;;;-2.52;100.00
61678;BME280;47575;52.054;4.334;2022-12-13T02:11:01;101396.69;;;-2.71;100.00
61678;BME280;47575;52.054;4.334;2022-12-13T02:13:28;101394.13;;;-2.71;100.00
61678;BME280;47575;52.054;4.334;2022-12-13T02:15:56;101397.66;;;-2.68;100.00
61678;BME280;47575;52.054;4.334;2022-12-13T02:18:35;101402.38;;;-2.53;100.00
61678;BME280;47575;52.054;4.334;2022-12-13T02:21:11;101399.47;;;-2.64;100.00
61678;BME280;47575;52.054;4.334;2022-12-13T02:26:48;101399.81;;;-2.53;100.00
61678;BME280;47575;52.054;4.334;2022-12-13T02:29:23;101391.53;;;-2.44;100.00
61678;BME280;47575;52.054;4.334;2022-12-13T02:31:59;101395.41;;;-2.57;100.00
61678;BME280;47575;52.054;4.334;2022-12-13T02:34:29;101392.03;;;-2.56;100.00
61678;BME280;47575;52.054;4.334;2022-12-13T02:37:00;101384.22;;;-2.61;100.00
61678;BME280;47575;52.054;4.334;2022-12-13T02:39:30;101386.03;;;-2.57;100.00
61678;BME280;47575;52.054;4.334;2022-12-13T02:41:59;101389.06;;;-2.68;100.00
61678;BME280;47575;52.054;4.334;2022-12-13T02:44:29;101384.84;;;-2.68;100.00
61678;BME280;47575;52.054;4.334;2022-12-13T02:47:02;101393.00;;;-2.53;100.00
61678;BME280;47575;52.054;4.334;2022-12-13T02:49:32;101392.28;;;-2.47;100.00
61678;BME280;47575;52.054;4.334;2022-12-13T02:52:00;101393.03;;;-2.51;100.00
61678;BME280;47575;52.054;4.334;2022-12-13T02:54:28;101396.66;;;-2.44;100.00
61678;BME280;47575;52.054;4.334;2022-12-13T02:56:56;101382.19;;;-2.71;100.00
61678;BME280;47575;52.054;4.334;2022-12-13T02:59:24;101378.47;;;-2.81;100.00
61678;BME280;47575;52.054;4.334;2022-12-13T03:01:53;101380.88;;;-2.85;100.00
61678;BME280;47575;52.054;4.334;2022-12-13T03:04:26;101380.81;;;-2.88;100.00
61678;BME280;47575;52.054;4.334;2022-12-13T03:06:57;101379.81;;;-2.92;100.00
61678;BME280;47575;52.054;4.334;2022-12-13T03:09:31;101370.63;;;-2.85;100.00
61678;BME280;47575;52.054;4.334;2022-12-13T03:12:09;101376.34;;;-2.94;100.00
61678;BME280;47575;52.054;4.334;2022-12-13T03:14:57;101381.16;;;-2.76;100.00
61678;BME280;47575;52.054;4.334;2022-12-13T03:17:25;101379.25;;;-2.55;100.00
61678;BME280;47575;52.054;4.334;2022-12-13T03:19:55;101379.13;;;-2.59;100.00
61678;BME280;47575;52.054;4.334;2022-12-13T03:22:22;101381.38;;;-2.68;100.00
61678;BME280;47575;52.054;4.334;2022-12-13T03:24:50;101381.38;;;-2.68;100.00
61678;BME280;47575;52.054;4.334;2022-12-13T03:27:17;101383.78;;;-2.74;100.00
61678;BME280;47575;52.054;4.334;2022-12-13T03:29:44;101376.38;;;-2.65;100.00
61678;BME280;47575;52.054;4.334;2022-12-13T03:32:11;101379.22;;;-2.83;100.00
61678;BME280;47575;52.054;4.334;2022-12-13T03:34:38;101383.38;;;-2.88;100.00
61678;BME280;47575;52.054;4.334;2022-12-13T03:37:06;101375.91;;;-2.81;100.00
61678;BME280;47575;52.054;4.334;2022-12-13T03:39:33;101379.53;;;-2.74;100.00
61678;BME280;47575;52.054;4.334;2022-12-13T03:42:01;101384.66;;;-2.74;100.00
61678;BME280;47575;52.054;4.334;2022-12-13T03:44:28;101382.34;;;-2.66;100.00
61678;BME280;47575;52.054;4.334;2022-12-13T03:46:55;101377.50;;;-2.84;100.00
61678;BME280;47575;52.054;4.334;2022-12-13T03:49:22;101377.47;;;-2.86;100.00
61678;BME280;47575;52.054;4.334;2022-12-13T03:51:49;101372.94;;;-2.94;100.00
61678;BME280;47575;52.054;4.334;2022-12-13T03:54:17;101376.31;;;-2.95;100.00
61678;BME280;47575;52.054;4.334;2022-12-13T03:56:45;101371.03;;;-3.00;100.00
61678;BME280;47575;52.054;4.334;2022-12-13T03:59:12;101371.06;;;-2.98;100.00
61678;BME280;47575;52.054;4.334;2022-12-13T04:01:39;101386.00;;;-2.85;100.00
61678;BME280;47575;52.054;4.334;2022-12-13T04:04:06;101373.44;;;-2.78;100.00
61678;BME280;47575;52.054;4.334;2022-12-13T04:06:33;101371.63;;;-2.82;100.00
61678;BME280;47575;52.054;4.334;2022-12-13T04:09:00;101369.25;;;-3.02;100.00
61678;BME280;47575;52.054;4.334;2022-12-13T04:11:28;101365.47;;;-2.87;100.00
61678;BME280;47575;52.054;4.334;2022-12-13T04:14:13;101373.13;;;-2.88;100.00
61678;BME280;47575;52.054;4.334;2022-12-13T04:16:40;101369.56;;;-2.65;100.00
61678;BME280;47575;52.054;4.334;2022-12-13T04:19:07;101368.78;;;-2.62;100.00
61678;BME280;47575;52.054;4.334;2022-12-13T04:21:34;101369.06;;;-2.53;100.00
61678;BME280;47575;52.054;4.334;2022-12-13T04:24:01;101365.03;;;-2.73;100.00
61678;BME280;47575;52.054;4.334;2022-12-13T04:26:29;101366.13;;;-2.65;100.00
61678;BME280;47575;52.054;4.334;2022-12-13T04:28:56;101362.66;;;-2.67;100.00
61678;BME280;47575;52.054;4.334;2022-12-13T04:31:23;101359.88;;;-2.75;100.00
61678;BME280;47575;52.054;4.334;2022-12-13T04:33:50;101360.66;;;-2.76;100.00
61678;BME280;47575;52.054;4.334;2022-12-13T04:36:17;101358.09;;;-2.76;100.00
61678;BME280;47575;52.054;4.334;2022-12-13T04:38:50;101363.00;;;-2.84;100.00
61678;BME280;47575;52.054;4.334;2022-12-13T04:41:17;101367.84;;;-2.93;100.00
61678;BME280;47575;52.054;4.334;2022-12-13T04:43:50;101371.06;;;-2.71;100.00
61678;BME280;47575;52.054;4.334;2022-12-13T04:46:18;101368.91;;;-2.86;100.00
61678;BME280;47575;52.054;4.334;2022-12-13T04:48:45;101370.44;;;-2.91;100.00
61678;BME280;47575;52.054;4.334;2022-12-13T04:51:13;101363.13;;;-3.08;100.00
61678;BME280;47575;52.054;4.334;2022-12-13T04:53:40;101360.59;;;-3.06;100.00
61678;BME280;47575;52.054;4.334;2022-12-13T04:56:07;101360.16;;;-2.93;100.00
61678;BME280;47575;52.054;4.334;2022-12-13T04:58:34;101360.34;;;-2.87;100.00
61678;BME280;47575;52.054;4.334;2022-12-13T05:01:06;101362.31;;;-2.78;100.00
61678;BME280;47575;52.054;4.334;2022-12-13T05:03:33;101359.63;;;-2.83;100.00
61678;BME280;47575;52.054;4.334;2022-12-13T05:06:02;101359.09;;;-2.72;100.00
61678;BME280;47575;52.054;4.334;2022-12-13T05:08:29;101366.03;;;-2.68;100.00
61678;BME280;47575;52.054;4.334;2022-12-13T05:10:56;101348.56;;;-2.82;100.00
61678;BME280;47575;52.054;4.334;2022-12-13T05:13:24;101349.28;;;-2.86;100.00
61678;BME280;47575;52.054;4.334;2022-12-13T05:15:53;101353.09;;;-3.00;100.00
61678;BME280;47575;52.054;4.334;2022-12-13T05:18:22;101350.69;;;-2.95;100.00
61678;BME280;47575;52.054;4.334;2022-12-13T05:20:49;101345.38;;;-3.01;100.00
61678;BME280;47575;52.054;4.334;2022-12-13T05:23:16;101347.03;;;-3.03;100.00
61678;BME280;47575;52.054;4.334;2022-12-13T05:25:43;101343.69;;;-3.01;100.00
61678;BME280;47575;52.054;4.334;2022-12-13T05:28:10;101341.75;;;-3.08;100.00
61678;BME280;47575;52.054;4.334;2022-12-13T05:30:38;101338.19;;;-3.13;100.00
61678;BME280;47575;52.054;4.334;2022-12-13T05:33:05;101351.28;;;-3.04;100.00
61678;BME280;47575;52.054;4.334;2022-12-13T05:35:37;101339.25;;;-3.07;100.00
61678;BME280;47575;52.054;4.334;2022-12-13T05:38:04;101343.66;;;-3.02;100.00
61678;BME280;47575;52.054;4.334;2022-12-13T05:40:31;101338.41;;;-3.06;100.00
61678;BME280;47575;52.054;4.334;2022-12-13T05:42:58;101343.53;;;-3.06;100.00
61678;BME280;47575;52.054;4.334;2022-12-13T05:45:25;101328.06;;;-3.10;100.00
61678;BME280;47575;52.054;4.334;2022-12-13T05:47:52;101339.25;;;-3.07;100.00
61678;BME280;47575;52.054;4.334;2022-12-13T05:50:19;101338.53;;;-3.02;100.00
61678;BME280;47575;52.054;4.334;2022-12-13T05:52:50;101336.69;;;-3.07;100.00
61678;BME280;47575;52.054;4.334;2022-12-13T05:55:17;101334.03;;;-3.10;100.00
61678;BME280;47575;52.054;4.334;2022-12-13T05:57:44;101331.44;;;-3.11;100.00
61678;BME280;47575;52.054;4.334;2022-12-13T06:00:11;101338.25;;;-3.12;100.00
61678;BME280;47575;52.054;4.334;2022-12-13T06:02:38;101339.19;;;-3.08;100.00
61678;BME280;47575;52.054;4.334;2022-12-13T06:05:06;101329.00;;;-3.07;100.00
61678;BME280;47575;52.054;4.334;2022-12-13T06:07:34;101327.31;;;-3.06;100.00
61678;BME280;47575;52.054;4.334;2022-12-13T06:10:03;101332.63;;;-3.00;100.00
61678;BME280;47575;52.054;4.334;2022-12-13T06:12:31;101335.41;;;-2.92;100.00
61678;BME280;47575;52.054;4.334;2022-12-13T06:14:59;101335.31;;;-2.97;100.00
61678;BME280;47575;52.054;4.334;2022-12-13T06:17:28;101329.22;;;-2.99;100.00
61678;BME280;47575;52.054;4.334;2022-12-13T06:19:55;101326.75;;;-2.97;100.00
61678;BME280;47575;52.054;4.334;2022-12-13T06:22:22;101325.91;;;-2.96;100.00
61678;BME280;47575;52.054;4.334;2022-12-13T06:24:52;101321.75;;;-2.93;100.00
61678;BME280;47575;52.054;4.334;2022-12-13T06:27:21;101319.09;;;-2.96;100.00
61678;BME280;47575;52.054;4.334;2022-12-13T06:29:48;101329.31;;;-2.97;100.00
61678;BME280;47575;52.054;4.334;2022-12-13T06:32:15;101330.28;;;-2.92;100.00
61678;BME280;47575;52.054;4.334;2022-12-13T06:34:42;101330.22;;;-2.95;100.00
61678;BME280;47575;52.054;4.334;2022-12-13T06:37:10;101337.16;;;-2.91;100.00
61678;BME280;47575;52.054;4.334;2022-12-13T06:39:37;101338.72;;;-2.96;100.00
61678;BME280;47575;52.054;4.334;2022-12-13T06:42:05;101339.81;;;-2.88;100.00
61678;BME280;47575;52.054;4.334;2022-12-13T06:44:34;101343.06;;;-2.94;100.00
61678;BME280;47575;52.054;4.334;2022-12-13T06:47:03;101342.28;;;-2.91;100.00
61678;BME280;47575;52.054;4.334;2022-12-13T06:49:30;101338.75;;;-2.95;100.00
61678;BME280;47575;52.054;4.334;2022-12-13T06:51:57;101333.38;;;-3.04;100.00
61678;BME280;47575;52.054;4.334;2022-12-13T06:54:24;101338.97;;;-3.16;100.00
61678;BME280;47575;52.054;4.334;2022-12-13T06:56:51;101342.31;;;-3.18;100.00
61678;BME280;47575;52.054;4.334;2022-12-13T06:59:18;101338.69;;;-3.25;100.00
61678;BME280;47575;52.054;4.334;2022-12-13T07:01:46;101336.84;;;-3.29;100.00
61678;BME280;47575;52.054;4.334;2022-12-13T07:04:13;101332.22;;;-3.41;100.00
61678;BME280;47575;52.054;4.334;2022-12-13T07:06:40;101330.66;;;-3.36;100.00
61678;BME280;47575;52.054;4.334;2022-12-13T07:09:07;101327.47;;;-3.28;100.00
61678;BME280;47575;52.054;4.334;2022-12-13T07:11:35;101331.59;;;-3.33;100.00
61678;BME280;47575;52.054;4.334;2022-12-13T07:14:02;101333.53;;;-3.26;100.00
61678;BME280;47575;52.054;4.334;2022-12-13T07:16:30;101331.03;;;-3.23;100.00
61678;BME280;47575;52.054;4.334;2022-12-13T07:18:59;101331.53;;;-3.35;100.00
61678;BME280;47575;52.054;4.334;2022-12-13T07:21:27;101324.84;;;-3.30;100.00
61678;BME280;47575;52.054;4.334;2022-12-13T07:23:54;101331.66;;;-3.30;100.00
61678;BME280;47575;52.054;4.334;2022-12-13T07:26:21;101336.84;;;-3.29;100.00
61678;BME280;47575;52.054;4.334;2022-12-13T07:28:48;101346.31;;;-3.26;100.00
61678;BME280;47575;52.054;4.334;2022-12-13T07:31:16;101340.16;;;-3.31;100.00
61678;BME280;47575;52.054;4.334;2022-12-13T07:33:43;101351.22;;;-3.32;100.00
61678;BME280;47575;52.054;4.334;2022-12-13T07:36:12;101341.88;;;-3.32;100.00
61678;BME280;47575;52.054;4.334;2022-12-13T07:38:40;101359.25;;;-3.22;100.00
61678;BME280;47575;52.054;4.334;2022-12-13T07:41:08;101360.09;;;-3.21;100.00
61678;BME280;47575;52.054;4.334;2022-12-13T07:43:35;101360.34;;;-3.41;100.00
61678;BME280;47575;52.054;4.334;2022-12-13T07:46:03;101355.81;;;-3.49;100.00
61678;BME280;47575;52.054;4.334;2022-12-13T07:48:31;101351.69;;;-3.44;100.00
61678;BME280;47575;52.054;4.334;2022-12-13T07:50:59;101352.72;;;-3.39;100.00
61678;BME280;47575;52.054;4.334;2022-12-13T07:53:28;101346.41;;;-3.23;100.00
61678;BME280;47575;52.054;4.334;2022-12-13T07:55:55;101348.13;;;-3.22;100.00
61678;BME280;47575;52.054;4.334;2022-12-13T07:58:22;101344.75;;;-3.21;100.00
61678;BME280;47575;52.054;4.334;2022-12-13T08:00:49;101360.97;;;-3.21;100.00
61678;BME280;47575;52.054;4.334;2022-12-13T08:03:16;101359.16;;;-3.25;100.00
61678;BME280;47575;52.054;4.334;2022-12-13T08:05:43;101361.88;;;-3.20;100.00
61678;BME280;47575;52.054;4.334;2022-12-13T08:08:10;101366.22;;;-3.18;100.00
61678;BME280;47575;52.054;4.334;2022-12-13T08:10:38;101378.50;;;-3.06;100.00
61678;BME280;47575;52.054;4.334;2022-12-13T08:13:05;101377.72;;;-3.05;100.00
61678;BME280;47575;52.054;4.334;2022-12-13T08:15:32;101376.50;;;-2.89;100.00
61678;BME280;47575;52.054;4.334;2022-12-13T08:17:59;101373.75;;;-2.95;100.00
61678;BME280;47575;52.054;4.334;2022-12-13T08:20:26;101379.47;;;-3.04;100.00
61678;BME280;47575;52.054;4.334;2022-12-13T08:22:54;101382.53;;;-2.87;100.00
61678;BME280;47575;52.054;4.334;2022-12-13T08:25:21;101378.31;;;-2.85;100.00
61678;BME280;47575;52.054;4.334;2022-12-13T08:27:49;101376.00;;;-2.78;100.00
61678;BME280;47575;52.054;4.334;2022-12-13T08:30:17;101377.56;;;-2.83;100.00
61678;BME280;47575;52.054;4.334;2022-12-13T08:32:44;101383.00;;;-2.72;100.00
61678;BME280;47575;52.054;4.334;2022-12-13T08:35:11;101381.50;;;-2.65;100.00
61678;BME280;47575;52.054;4.334;2022-12-13T08:37:38;101392.34;;;-2.74;100.00
61678;BME280;47575;52.054;4.334;2022-12-13T08:40:05;101384.06;;;-2.65;100.00
61678;BME280;47575;52.054;4.334;2022-12-13T08:42:32;101385.16;;;-2.57;100.00
61678;BME280;47575;52.054;4.334;2022-12-13T08:45:00;101378.06;;;-2.37;100.00
61678;BME280;47575;52.054;4.334;2022-12-13T08:47:27;101379.16;;;-2.29;100.00
61678;BME280;47575;52.054;4.334;2022-12-13T08:49:55;101380.53;;;-2.40;100.00
61678;BME280;47575;52.054;4.334;2022-12-13T08:52:23;101386.44;;;-2.43;100.00
61678;BME280;47575;52.054;4.334;2022-12-13T08:54:50;101390.09;;;-2.35;100.00
61678;BME280;47575;52.054;4.334;2022-12-13T08:57:17;101383.56;;;-2.24;100.00
61678;BME280;47575;52.054;4.334;2022-12-13T08:59:45;101385.19;;;-2.27;100.00
61678;BME280;47575;52.054;4.334;2022-12-13T09:02:13;101390.53;;;-2.19;100.00
61678;BME280;47575;52.054;4.334;2022-12-13T09:04:40;101394.06;;;-2.16;100.00
61678;BME280;47575;52.054;4.334;2022-12-13T09:07:08;101397.63;;;-2.11;100.00
61678;BME280;47575;52.054;4.334;2022-12-13T09:09:35;101393.50;;;-2.06;100.00
61678;BME280;47575;52.054;4.334;2022-12-13T09:12:02;101388.31;;;-2.07;100.00
61678;BME280;47575;52.054;4.334;2022-12-13T09:14:29;101394.44;;;-2.02;100.00
61678;BME280;47575;52.054;4.334;2022-12-13T09:16:56;101390.06;;;-2.06;100.00
61678;BME280;47575;52.054;4.334;2022-12-13T09:19:25;101404.88;;;-1.96;100.00
61678;BME280;47575;52.054;4.334;2022-12-13T09:21:52;101406.13;;;-1.82;100.00
61678;BME280;47575;52.054;4.334;2022-12-13T09:24:19;101400.28;;;-1.76;100.00
61678;BME280;47575;52.054;4.334;2022-12-13T09:26:46;101393.53;;;-1.73;100.00
61678;BME280;47575;52.054;4.334;2022-12-13T09:29:13;101403.09;;;-1.67;100.00
61678;BME280;47575;52.054;4.334;2022-12-13T09:31:41;101406.34;;;-1.41;100.00
61678;BME280;47575;52.054;4.334;2022-12-13T09:34:09;101398.75;;;-1.36;100.00
61678;BME280;47575;52.054;4.334;2022-12-13T09:36:37;101397.25;;;-1.28;100.00
61678;BME280;47575;52.054;4.334;2022-12-13T09:39:04;101389.81;;;-1.18;100.00
61678;BME280;47575;52.054;4.334;2022-12-13T09:41:33;101396.91;;;-1.07;100.00
61678;BME280;47575;52.054;4.334;2022-12-13T09:44:02;101389.16;;;-1.09;100.00
61678;BME280;47575;52.054;4.334;2022-12-13T09:46:30;101408.72;;;-0.79;100.00
61678;BME280;47575;52.054;4.334;2022-12-13T09:48:58;101395.16;;;-0.72;100.00
61678;BME280;47575;52.054;4.334;2022-12-13T09:51:28;101395.00;;;-0.80;100.00
61678;BME280;47575;52.054;4.334;2022-12-13T09:53:59;101399.84;;;-0.54;100.00
61678;BME280;47575;52.054;4.334;2022-12-13T09:56:26;101402.56;;;-0.47;100.00
61678;BME280;47575;52.054;4.334;2022-12-13T09:58:53;101399.63;;;-0.24;100.00
61678;BME280;47575;52.054;4.334;2022-12-13T10:01:21;101407.19;;;-0.32;100.00
61678;BME280;47575;52.054;4.334;2022-12-13T10:03:49;101396.31;;;-0.19;100.00
61678;BME280;47575;52.054;4.334;2022-12-13T10:06:18;101386.53;;;-0.37;100.00
61678;BME280;47575;52.054;4.334;2022-12-13T10:08:46;101388.78;;;-0.10;100.00
61678;BME280;47575;52.054;4.334;2022-12-13T10:11:16;101386.03;;;0.25;100.00
61678;BME280;47575;52.054;4.334;2022-12-13T10:13:45;101384.28;;;0.24;100.00
61678;BME280;47575;52.054;4.334;2022-12-13T10:16:16;101386.56;;;0.54;100.00
61678;BME280;47575;52.054;4.334;2022-12-13T10:18:44;101377.28;;;0.65;100.00
61678;BME280;47575;52.054;4.334;2022-12-13T10:21:12;101383.66;;;0.87;100.00
61678;BME280;47575;52.054;4.334;2022-12-13T10:23:40;101370.91;;;0.96;100.00
61678;BME280;47575;52.054;4.334;2022-12-13T10:26:07;101368.50;;;1.05;100.00
61678;BME280;47575;52.054;4.334;2022-12-13T10:28:36;101366.94;;;1.18;100.00
61678;BME280;47575;52.054;4.334;2022-12-13T10:31:04;101349.28;;;0.85;100.00
61678;BME280;47575;52.054;4.334;2022-12-13T10:33:31;101349.16;;;0.77;100.00
61678;BME280;47575;52.054;4.334;2022-12-13T10:36:03;101345.84;;;0.86;100.00
61678;BME280;47575;52.054;4.334;2022-12-13T10:38:33;101340.72;;;0.88;100.00
61678;BME280;47575;52.054;4.334;2022-12-13T10:41:00;101328.19;;;0.56;100.00
61678;BME280;47575;52.054;4.334;2022-12-13T10:43:27;101329.53;;;0.33;100.00
61678;BME280;47575;52.054;4.334;2022-12-13T10:45:59;101318.22;;;0.23;100.00
61678;BME280;47575;52.054;4.334;2022-12-13T10:48:30;101313.31;;;0.38;100.00
61678;BME280;47575;52.054;4.334;2022-12-13T10:51:00;101317.63;;;0.39;100.00
61678;BME280;47575;52.054;4.334;2022-12-13T10:53:28;101321.81;;;0.86;100.00
61678;BME280;47575;52.054;4.334;2022-12-13T10:55:56;101313.97;;;0.78;100.00
61678;BME280;47575;52.054;4.334;2022-12-13T10:58:32;101312.16;;;0.74;100.00
61678;BME280;47575;52.054;4.334;2022-12-13T11:01:08;101309.63;;;0.75;100.00
61678;BME280;47575;52.054;4.334;2022-12-13T11:03:35;101304.63;;;0.85;100.00
61678;BME280;47575;52.054;4.334;2022-12-13T11:06:03;101299.38;;;0.81;100.00
61678;BME280;47575;52.054;4.334;2022-12-13T11:08:31;101300.19;;;0.76;100.00
61678;BME280;47575;52.054;4.334;2022-12-13T11:10:58;101297.84;;;0.91;100.00
61678;BME280;47575;52.054;4.334;2022-12-13T11:13:29;101303.31;;;1.14;100.00
61678;BME280;47575;52.054;4.334;2022-12-13T11:15:58;101294.75;;;1.17;100.00
61678;BME280;47575;52.054;4.334;2022-12-13T11:18:29;101288.69;;;1.13;100.00
61678;BME280;47575;52.054;4.334;2022-12-13T11:21:00;101282.28;;;0.83;100.00
61678;BME280;47575;52.054;4.334;2022-12-13T11:23:28;101275.19;;;0.70;100.00
61678;BME280;47575;52.054;4.334;2022-12-13T11:25:59;101266.09;;;0.94;100.00
61678;BME280;47575;52.054;4.334;2022-12-13T11:28:34;101262.53;;;0.87;100.00
61678;BME280;47575;52.054;4.334;2022-12-13T11:31:08;101256.72;;;1.00;100.00
61678;BME280;47575;52.054;4.334;2022-12-13T11:33:40;101240.97;;;0.79;100.00
61678;BME280;47575;52.054;4.334;2022-12-13T11:36:14;101245.06;;;0.66;100.00
61678;BME280;47575;52.054;4.334;2022-12-13T11:38:49;101234.94;;;0.78;100.00
61678;BME280;47575;52.054;4.334;2022-12-13T11:41:23;101230.94;;;0.99;100.00
61678;BME280;47575;52.054;4.334;2022-12-13T11:43:53;101227.53;;;1.03;100.00
61678;BME280;47575;52.054;4.334;2022-12-13T11:46:34;101221.41;;;0.92;100.00
61678;BME280;47575;52.054;4.334;2022-12-13T11:49:05;101222.16;;;0.86;100.00
61678;BME280;47575;52.054;4.334;2022-12-13T11:51:37;101224.06;;;0.99;100.00
61678;BME280;47575;52.054;4.334;2022-12-13T11:54:07;101221.59;;;1.07;100.00
61678;BME280;47575;52.054;4.334;2022-12-13T11:56:37;101211.28;;;1.07;100.00
61678;BME280;47575;52.054;4.334;2022-12-13T11:59:07;101218.81;;;0.90;100.00
61678;BME280;47575;52.054;4.334;2022-12-13T12:01:37;101217.22;;;1.01;100.00
61678;BME280;47575;52.054;4.334;2022-12-13T12:04:11;101212.34;;;1.26;100.00
61678;BME280;47575;52.054;4.334;2022-12-13T12:06:41;101209.56;;;1.06;100.00
61678;BME280;47575;52.054;4.334;2022-12-13T12:09:11;101195.81;;;1.05;100.00
61678;BME280;47575;52.054;4.334;2022-12-13T12:11:41;101201.84;;;1.09;100.00
61678;BME280;47575;52.054;4.334;2022-12-13T12:14:11;101204.84;;;1.44;100.00
61678;BME280;47575;52.054;4.334;2022-12-13T12:16:40;101196.44;;;1.63;100.00
61678;BME280;47575;52.054;4.334;2022-12-13T12:19:12;101194.47;;;1.39;100.00
61678;BME280;47575;52.054;4.334;2022-12-13T12:21:44;101193.78;;;1.56;100.00
61678;BME280;47575;52.054;4.334;2022-12-13T12:24:17;101194.59;;;1.52;100.00
61678;BME280;47575;52.054;4.334;2022-12-13T12:26:50;101195.69;;;1.74;100.00
61678;BME280;47575;52.054;4.334;2022-12-13T12:29:25;101178.56;;;1.85;100.00
61678;BME280;47575;52.054;4.334;2022-12-13T12:31:58;101182.72;;;1.66;100.00
61678;BME280;47575;52.054;4.334;2022-12-13T12:34:33;101170.53;;;1.53;100.00
61678;BME280;47575;52.054;4.334;2022-12-13T12:37:06;101168.22;;;1.82;100.00
61678;BME280;47575;52.054;4.334;2022-12-13T12:39:50;101164.72;;;1.75;100.00
61678;BME280;47575;52.054;4.334;2022-12-13T12:42:25;101169.09;;;1.85;100.00
61678;BME280;47575;52.054;4.334;2022-12-13T12:45:00;101156.78;;;1.51;100.00
61678;BME280;47575;52.054;4.334;2022-12-13T12:47:32;101155.84;;;1.47;100.00
61678;BME280;47575;52.054;4.334;2022-12-13T12:52:52;101153.91;;;1.25;100.00
61678;BME280;47575;52.054;4.334;2022-12-13T12:55:26;101149.50;;;1.16;100.00
61678;BME280;47575;52.054;4.334;2022-12-13T12:57:57;101152.00;;;1.07;100.00